Time;durP1;ratioP1;P1;durP2;ratioP2;P2;SDS_P1;SDS_P2;PMS_P1;PMS_P2;Temp;Humidity;BMP_temperature;BMP_pressure;BME280_temperature;BME280_humidity;BME280_pressure;Samples;Min_cycle;Max_cycle;Signal;HPM_P1;HPM_P2
2021/11/08 00:01:45;;;;;;;0.30;0.30;;;;;;;;;;5033361;28;20065;-35
2021/11/08 00:04:11;;;;;;;0.10;0.10;;;;;;;;;;5033947;28;20041;-35
2021/11/08 00:06:37;;;;;;;0.38;0.10;;;;;;;;;;5033702;28;20491;-35
2021/11/08 00:09:04;;;;;;;0.17;0.15;;;;;;;;;;5033997;28;20045;-35
2021/11/08 00:11:31;;;;;;;0.68;0.10;;;;;;;;;;5033986;28;20124;-35
2021/11/08 00:13:57;;;;;;;0.32;0.10;;;;;;;;;;5033688;28;20075;-35
2021/11/08 00:21:33;;;;;;;0.40;0.10;;;;;;;;;;5033397;28;20021;-35
2021/11/08 00:23:59;;;;;;;0.10;0.10;;;;;;;;;;5033476;28;20045;-35
2021/11/08 00:26:25;;;;;;;0.10;0.10;;;;;;;;;;5032163;28;20037;-34
2021/11/08 00:28:52;;;;;;;0.28;0.10;;;;;;;;;;5033685;28;20461;-35
2021/11/08 00:31:18;;;;;;;0.10;0.10;;;;;;;;;;5033136;28;20389;-35
2021/11/08 00:33:44;;;;;;;0.22;0.10;;;;;;;;;;5033488;28;20033;-35
2021/11/08 00:36:10;;;;;;;0.20;0.10;;;;;;;;;;5033469;28;20075;-35
2021/11/08 00:38:35;;;;;;;0.20;0.20;;;;;;;;;;5033657;28;20433;-35
2021/11/08 00:41:02;;;;;;;0.10;0.10;;;;;;;;;;5033286;28;20393;-35
2021/11/08 00:43:28;;;;;;;0.13;0.13;;;;;;;;;;5033171;28;20040;-34
2021/11/08 00:45:54;;;;;;;0.10;0.10;;;;;;;;;;5032752;28;20033;-34
2021/11/08 00:48:22;;;;;;;0.10;0.10;;;;;;;;;;5033113;28;20117;-34
2021/11/08 00:50:49;;;;;;;0.13;0.10;;;;;;;;;;5032921;28;20449;-34
2021/11/08 00:53:17;;;;;;;0.10;0.10;;;;;;;;;;5033361;28;20033;-35
2021/11/08 00:55:44;;;;;;;0.10;0.10;;;;;;;;;;5033088;28;20025;-35
2021/11/08 00:58:17;;;;;;;0.10;0.10;;;;;;;;;;5032932;28;20033;-34
2021/11/08 01:00:43;;;;;;;0.10;0.10;;;;;;;;;;5046908;28;20130;-35
2021/11/08 01:03:10;;;;;;;0.10;0.10;;;;;;;;;;5033140;28;20132;-34
2021/11/08 01:05:36;;;;;;;0.10;0.10;;;;;;;;;;5032485;28;20060;-35
2021/11/08 01:08:03;;;;;;;0.63;0.10;;;;;;;;;;5031595;28;20555;-35
2021/11/08 01:10:29;;;;;;;0.17;0.13;;;;;;;;;;5032550;28;20116;-35
2021/11/08 01:12:54;;;;;;;0.10;0.10;;;;;;;;;;5031451;28;20120;-34
2021/11/08 01:15:20;;;;;;;0.10;0.10;;;;;;;;;;5031620;28;20027;-35
2021/11/08 01:17:46;;;;;;;0.05;0.05;;;;;;;;;;5031716;28;20029;-34
2021/11/08 01:20:12;;;;;;;0.55;0.25;;;;;;;;;;5032457;28;20067;-34
2021/11/08 01:22:41;;;;;;;0.38;0.05;;;;;;;;;;5032400;28;20458;-34
2021/11/08 01:25:08;;;;;;;0.50;0.10;;;;;;;;;;5032345;28;20120;-35
2021/11/08 01:27:42;;;;;;;0.20;0.20;;;;;;;;;;5032053;28;20061;-35
2021/11/08 01:30:13;;;;;;;0.10;0.00;;;;;;;;;;5031574;28;20033;-35
2021/11/08 01:32:40;;;;;;;0.38;0.17;;;;;;;;;;5032327;28;20481;-35
2021/11/08 01:35:06;;;;;;;0.10;0.10;;;;;;;;;;5032267;28;20065;-35
2021/11/08 01:37:31;;;;;;;0.43;0.10;;;;;;;;;;5032217;28;20087;-36
2021/11/08 01:39:58;;;;;;;0.10;0.10;;;;;;;;;;5032164;28;20037;-35
2021/11/08 01:42:23;;;;;;;0.10;0.10;;;;;;;;;;5032269;28;20037;-35
2021/11/08 01:44:49;;;;;;;0.10;0.10;;;;;;;;;;5031586;28;20045;-35
2021/11/08 01:47:15;;;;;;;0.52;0.10;;;;;;;;;;5032133;28;20041;-35
2021/11/08 01:49:41;;;;;;;0.20;0.10;;;;;;;;;;5031861;28;20049;-35
2021/11/08 01:52:08;;;;;;;0.10;0.00;;;;;;;;;;5031271;28;20052;-35
2021/11/08 01:54:34;;;;;;;0.43;0.10;;;;;;;;;;5030599;28;20116;-35
2021/11/08 01:57:00;;;;;;;0.20;0.17;;;;;;;;;;5047064;28;20045;-35
2021/11/08 01:59:26;;;;;;;0.10;0.10;;;;;;;;;;5031845;28;20512;-35
2021/11/08 02:01:54;;;;;;;0.10;0.10;;;;;;;;;;5031501;28;20083;-35
2021/11/08 02:04:20;;;;;;;0.20;0.10;;;;;;;;;;5031785;28;20045;-35
2021/11/08 02:06:46;;;;;;;0.10;0.10;;;;;;;;;;5031379;28;20041;-35
2021/11/08 02:09:12;;;;;;;0.20;0.20;;;;;;;;;;5028995;28;20029;-35
2021/11/08 02:11:37;;;;;;;0.10;0.10;;;;;;;;;;5031539;28;20087;-35
2021/11/08 02:14:03;;;;;;;0.10;0.10;;;;;;;;;;5031339;28;20179;-35
2021/11/08 02:16:29;;;;;;;0.20;0.20;;;;;;;;;;5031150;28;20032;-35
2021/11/08 02:18:56;;;;;;;0.00;0.00;;;;;;;;;;5030376;28;20033;-35
2021/11/08 02:21:23;;;;;;;0.10;0.10;;;;;;;;;;5030003;28;20495;-35
2021/11/08 02:23:49;;;;;;;0.10;0.10;;;;;;;;;;5030074;28;20029;-35
2021/11/08 02:26:17;;;;;;;0.10;0.10;;;;;;;;;;5030961;28;20049;-35
2021/11/08 02:28:44;;;;;;;0.10;0.10;;;;;;;;;;5030263;28;20041;-35
2021/11/08 02:31:13;;;;;;;0.00;0.00;;;;;;;;;;5016774;28;20038;-35
2021/11/08 02:33:40;;;;;;;0.55;0.00;;;;;;;;;;5046419;28;20048;-35
2021/11/08 02:36:06;;;;;;;0.10;0.10;;;;;;;;;;5030785;28;20051;-35
2021/11/08 02:38:36;;;;;;;0.68;0.25;;;;;;;;;;5029904;28;20041;-35
2021/11/08 02:41:02;;;;;;;0.08;0.08;;;;;;;;;;5030011;28;20124;-35
2021/11/08 02:43:28;;;;;;;0.43;0.13;;;;;;;;;;5031064;28;20045;-35
2021/11/08 02:46:11;;;;;;;0.20;0.05;;;;;;;;;;5030226;28;20044;-35
2021/11/08 02:48:38;;;;;;;0.55;0.30;;;;;;;;;;5029912;28;20448;-35
2021/11/08 02:51:24;;;;;;;0.10;0.10;;;;;;;;;;5030814;28;20052;-35
2021/11/08 02:53:54;;;;;;;0.13;0.10;;;;;;;;;;5030841;28;20504;-35
2021/11/08 02:56:20;;;;;;;0.00;0.00;;;;;;;;;;5030836;28;20033;-35
2021/11/08 02:58:46;;;;;;;0.10;0.10;;;;;;;;;;5029916;28;20032;-35
2021/11/08 03:01:16;;;;;;;0.20;0.10;;;;;;;;;;5030193;28;20489;-35
2021/11/08 03:03:45;;;;;;;0.10;0.10;;;;;;;;;;5031021;28;20064;-35
2021/11/08 03:06:24;;;;;;;0.10;0.10;;;;;;;;;;5045985;28;20294;-36
2021/11/08 03:08:51;;;;;;;0.00;0.00;;;;;;;;;;5018352;28;20037;-35
2021/11/08 03:11:18;;;;;;;0.20;0.10;;;;;;;;;;5031013;28;20336;-35
2021/11/08 03:14:54;;;;;;;0.30;0.05;;;;;;;;;;5030567;28;20048;-35
2021/11/08 03:16:47;;;;;;;0.08;0.05;;;;;;;;;;5025242;28;20041;-35
2021/11/08 03:19:17;;;;;;;0.10;0.10;;;;;;;;;;5029628;28;20584;-35
2021/11/08 03:21:46;;;;;;;0.10;0.10;;;;;;;;;;5029295;28;20124;-35
2021/11/08 03:24:16;;;;;;;0.10;0.10;;;;;;;;;;5029367;28;20413;-35
2021/11/08 03:26:47;;;;;;;0.30;0.13;;;;;;;;;;5030451;28;20034;-35
2021/11/08 03:29:13;;;;;;;0.10;0.10;;;;;;;;;;5030720;28;20041;-35
2021/11/08 03:31:41;;;;;;;0.50;0.20;;;;;;;;;;5030000;28;20117;-35
2021/11/08 03:34:09;;;;;;;0.10;0.10;;;;;;;;;;5029355;28;20041;-35
2021/11/08 03:36:36;;;;;;;0.45;0.10;;;;;;;;;;5030625;28;20041;-35
2021/11/08 03:39:03;;;;;;;0.10;0.10;;;;;;;;;;5030412;28;20501;-35
2021/11/08 03:41:29;;;;;;;0.10;0.10;;;;;;;;;;5029905;28;20204;-34
2021/11/08 03:43:55;;;;;;;0.00;0.00;;;;;;;;;;5028813;28;20112;-36
2021/11/08 03:46:21;;;;;;;0.20;0.10;;;;;;;;;;5029880;28;20220;-35
2021/11/08 03:48:47;;;;;;;0.00;0.00;;;;;;;;;;5030453;28;20106;-35
2021/11/08 03:51:12;;;;;;;0.10;0.10;;;;;;;;;;5030154;28;20491;-35
2021/11/08 03:53:38;;;;;;;0.22;0.20;;;;;;;;;;5033420;28;20034;-35
2021/11/08 03:56:06;;;;;;;0.00;0.00;;;;;;;;;;5034069;28;20048;-35
2021/11/08 03:58:32;;;;;;;0.00;0.00;;;;;;;;;;5049248;28;20052;-35
2021/11/08 04:00:59;;;;;;;0.10;0.10;;;;;;;;;;5033605;28;20060;-35
2021/11/08 04:03:25;;;;;;;0.30;0.10;;;;;;;;;;5049144;28;20154;-35
2021/11/08 04:05:51;;;;;;;0.10;0.10;;;;;;;;;;5033857;28;20414;-35
2021/11/08 04:08:20;;;;;;;0.08;0.08;;;;;;;;;;5033919;28;20087;-35
2021/11/08 04:10:51;;;;;;;0.10;0.10;;;;;;;;;;5033703;28;20473;-35
2021/11/08 04:13:19;;;;;;;0.10;0.10;;;;;;;;;;5033873;28;20041;-35
2021/11/08 04:15:46;;;;;;;0.70;0.20;;;;;;;;;;5033178;28;20469;-35
2021/11/08 04:18:14;;;;;;;0.03;0.03;;;;;;;;;;5033984;28;20038;-35
2021/11/08 04:20:42;;;;;;;0.10;0.10;;;;;;;;;;5033647;28;20037;-35
2021/11/08 04:23:08;;;;;;;0.17;0.10;;;;;;;;;;5032655;28;20037;-35
2021/11/08 04:25:34;;;;;;;0.10;0.10;;;;;;;;;;5033339;28;20123;-35
2021/11/08 04:28:00;;;;;;;0.30;0.10;;;;;;;;;;5033526;28;20473;-36
2021/11/08 04:30:28;;;;;;;0.28;0.10;;;;;;;;;;5048501;28;20115;-36
2021/11/08 04:41:20;;;;;;;0.10;0.10;;;;;;;;;;5032629;28;20569;-35
2021/11/08 04:48:54;;;;;;;0.10;0.10;;;;;;;;;;5033388;28;20385;-35
2021/11/08 04:51:33;;;;;;;0.10;0.10;;;;;;;;;;5032852;28;20041;-35
2021/11/08 05:24:14;;;;;;;0.22;0.10;;;;;;;;;;5032626;28;20044;-35
2021/11/08 05:32:09;;;;;;;0.35;0.20;;;;;;;;;;5031016;28;20434;-35
2021/11/08 05:34:35;;;;;;;0.20;0.10;;;;;;;;;;5032294;28;20083;-35
2021/11/08 05:37:00;;;;;;;0.20;0.10;;;;;;;;;;5031128;28;20104;-34
2021/11/08 05:39:26;;;;;;;0.10;0.10;;;;;;;;;;5031998;28;20040;-35
2021/11/08 05:41:51;;;;;;;0.45;0.10;;;;;;;;;;5032060;28;20029;-35
2021/11/08 05:44:17;;;;;;;0.10;0.10;;;;;;;;;;5032109;28;20041;-35
2021/11/08 05:46:43;;;;;;;0.20;0.10;;;;;;;;;;5031617;28;20151;-35
2021/11/08 05:49:08;;;;;;;0.10;0.10;;;;;;;;;;5031858;28;20101;-35
2021/11/08 05:51:34;;;;;;;0.10;0.10;;;;;;;;;;5031764;28;20037;-35
2021/11/08 05:53:59;;;;;;;0.10;0.10;;;;;;;;;;5030704;28;20083;-36
2021/11/08 06:48:09;;;;;;;0.63;0.20;;;;;;;;;;4990092;28;20430;-35
2021/11/08 06:50:58;;;;;;;0.28;0.10;;;;;;;;;;5023294;28;20041;-35
2021/11/08 06:53:24;;;;;;;0.10;0.10;;;;;;;;;;5019467;28;20466;-35
2021/11/08 06:55:52;;;;;;;1.45;0.17;;;;;;;;;;5025535;28;20091;-35
2021/11/08 06:58:21;;;;;;;0.13;0.13;;;;;;;;;;5026260;28;20123;-36
2021/11/08 07:00:49;;;;;;;0.65;0.20;;;;;;;;;;5014086;28;20026;-36
2021/11/08 07:03:15;;;;;;;0.52;0.17;;;;;;;;;;5022759;28;20441;-35
2021/11/08 07:05:41;;;;;;;0.20;0.20;;;;;;;;;;5021182;28;20124;-36
2021/11/08 07:08:07;;;;;;;0.10;0.10;;;;;;;;;;5011661;28;20037;-35
2021/11/08 07:10:33;;;;;;;0.43;0.10;;;;;;;;;;5006903;28;20453;-35
2021/11/08 07:12:59;;;;;;;1.55;0.10;;;;;;;;;;5016545;28;20496;-35
2021/11/08 07:15:25;;;;;;;0.32;0.20;;;;;;;;;;5009181;28;20063;-35
2021/11/08 07:17:51;;;;;;;0.10;0.10;;;;;;;;;;5014625;28;20140;-35
2021/11/08 07:20:19;;;;;;;0.17;0.17;;;;;;;;;;5018588;28;20127;-35
2021/11/08 07:22:44;;;;;;;0.52;0.25;;;;;;;;;;5008950;28;20052;-35
2021/11/08 07:25:10;;;;;;;2.33;0.57;;;;;;;;;;5012707;28;20378;-35
2021/11/08 07:27:36;;;;;;;0.50;0.20;;;;;;;;;;5007381;28;20066;-35
2021/11/08 07:30:04;;;;;;;0.68;0.13;;;;;;;;;;5010457;28;20113;-35
2021/11/08 07:32:30;;;;;;;0.10;0.10;;;;;;;;;;5015769;28;20407;-35
2021/11/08 07:34:56;;;;;;;0.32;0.20;;;;;;;;;;5015721;28;20041;-35
2021/11/08 07:37:23;;;;;;;0.98;0.30;;;;;;;;;;5018783;28;21575;-35
2021/11/08 07:39:49;;;;;;;0.30;0.20;;;;;;;;;;5017006;28;20465;-36
2021/11/08 07:42:15;;;;;;;0.20;0.10;;;;;;;;;;5013974;28;20051;-35
2021/11/08 07:44:42;;;;;;;0.43;0.20;;;;;;;;;;5012953;28;20045;-35
2021/11/08 07:47:08;;;;;;;1.30;0.30;;;;;;;;;;5018564;28;20029;-35
2021/11/08 07:49:33;;;;;;;2.35;0.40;;;;;;;;;;4976431;28;20039;-38
2021/11/08 07:51:59;;;;;;;0.32;0.15;;;;;;;;;;5008164;28;20041;-36
2021/11/08 07:54:29;;;;;;;0.30;0.10;;;;;;;;;;4996478;28;20041;-36
2021/11/08 07:56:56;;;;;;;0.85;0.20;;;;;;;;;;5005570;28;21676;-37
2021/11/08 07:59:21;;;;;;;0.65;0.20;;;;;;;;;;5018398;28;20799;-36
2021/11/08 08:01:48;;;;;;;0.50;0.30;;;;;;;;;;4994964;28;20037;-36
2021/11/08 08:04:15;;;;;;;0.50;0.25;;;;;;;;;;4999479;28;20052;-36
2021/11/08 08:06:41;;;;;;;1.17;0.20;;;;;;;;;;4999753;28;20046;-37
2021/11/08 08:09:06;;;;;;;1.35;0.22;;;;;;;;;;5010962;28;20048;-37
2021/11/08 08:11:32;;;;;;;2.92;0.20;;;;;;;;;;5014607;28;20396;-36
2021/11/08 08:13:58;;;;;;;0.30;0.20;;;;;;;;;;4998400;28;20466;-35
2021/11/08 08:16:24;;;;;;;3.90;0.38;;;;;;;;;;5013525;28;20037;-36
2021/11/08 08:18:51;;;;;;;1.02;0.30;;;;;;;;;;5019169;28;20036;-35
2021/11/08 08:21:18;;;;;;;3.22;0.35;;;;;;;;;;5018556;28;20103;-35
2021/11/08 08:23:44;;;;;;;0.65;0.22;;;;;;;;;;5013193;28;20041;-35
2021/11/08 08:26:11;;;;;;;1.00;0.30;;;;;;;;;;5014401;28;20713;-35
2021/11/08 08:28:37;;;;;;;1.13;0.30;;;;;;;;;;5040993;28;20045;-35
2021/11/08 08:31:03;;;;;;;0.70;0.20;;;;;;;;;;5019413;28;20049;-35
2021/11/08 08:33:29;;;;;;;0.20;0.20;;;;;;;;;;5005378;28;20087;-35
2021/11/08 08:35:54;;;;;;;0.47;0.30;;;;;;;;;;5015776;28;20051;-35
2021/11/08 08:38:22;;;;;;;0.45;0.20;;;;;;;;;;5017567;28;20557;-35
2021/11/08 08:40:49;;;;;;;0.28;0.20;;;;;;;;;;5019482;28;20040;-35
2021/11/08 08:43:17;;;;;;;1.05;0.28;;;;;;;;;;5010100;28;20124;-35
2021/11/08 08:45:42;;;;;;;0.80;0.20;;;;;;;;;;5005151;28;20526;-35
2021/11/08 08:48:11;;;;;;;0.20;0.20;;;;;;;;;;4995573;28;20080;-35
2021/11/08 08:50:37;;;;;;;0.47;0.22;;;;;;;;;;5015195;28;20417;-35
2021/11/08 08:53:03;;;;;;;0.22;0.20;;;;;;;;;;5016715;28;20091;-35
2021/11/08 08:55:29;;;;;;;1.65;0.40;;;;;;;;;;5008749;28;20400;-35
2021/11/08 08:57:56;;;;;;;0.57;0.20;;;;;;;;;;5011643;28;20092;-36
2021/11/08 09:00:22;;;;;;;0.90;0.25;;;;;;;;;;5003551;28;20625;-36
2021/11/08 09:02:49;;;;;;;1.20;0.20;;;;;;;;;;5004288;28;20052;-35
2021/11/08 09:05:15;;;;;;;0.55;0.20;;;;;;;;;;5010374;28;20037;-36
2021/11/08 09:07:41;;;;;;;0.45;0.20;;;;;;;;;;5005325;28;20041;-35
2021/11/08 09:10:07;;;;;;;2.15;0.50;;;;;;;;;;5015148;28;20052;-35
2021/11/08 09:12:33;;;;;;;1.40;0.50;;;;;;;;;;5009702;28;20033;-35
2021/11/08 09:14:58;;;;;;;1.35;0.20;;;;;;;;;;5015377;28;20434;-35
2021/11/08 09:17:24;;;;;;;1.02;0.20;;;;;;;;;;5019451;28;20041;-35
2021/11/08 09:19:50;;;;;;;0.43;0.20;;;;;;;;;;5014689;28;20042;-35
2021/11/08 09:22:15;;;;;;;0.90;0.20;;;;;;;;;;5016900;28;20068;-35
2021/11/08 09:24:41;;;;;;;1.02;0.47;;;;;;;;;;5015101;28;20056;-35
2021/11/08 09:27:08;;;;;;;2.17;0.30;;;;;;;;;;5012984;28;20037;-35
2021/11/08 09:29:33;;;;;;;0.35;0.28;;;;;;;;;;5009466;28;20038;-35
2021/11/08 09:31:59;;;;;;;2.35;0.40;;;;;;;;;;5014499;28;20040;-36
2021/11/08 09:34:25;;;;;;;1.05;0.28;;;;;;;;;;5019768;28;20492;-36
2021/11/08 09:36:54;;;;;;;0.80;0.40;;;;;;;;;;5010741;28;20041;-35
2021/11/08 09:39:24;;;;;;;0.60;0.37;;;;;;;;;;4991933;28;20104;-35
2021/11/08 09:41:57;;;;;;;0.65;0.30;;;;;;;;;;4987740;28;20132;-35
2021/11/08 09:44:23;;;;;;;0.30;0.22;;;;;;;;;;4994858;28;20130;-35
2021/11/08 09:46:54;;;;;;;1.10;0.30;;;;;;;;;;5009538;28;20037;-36
2021/11/08 09:49:19;;;;;;;0.38;0.17;;;;;;;;;;5015559;28;20102;-35
2021/11/08 09:51:47;;;;;;;1.38;0.30;;;;;;;;;;5008402;28;20113;-35
2021/11/08 09:54:14;;;;;;;1.25;0.55;;;;;;;;;;5009686;28;20056;-35
2021/11/08 09:56:41;;;;;;;0.70;0.30;;;;;;;;;;5012331;28;20065;-35
2021/11/08 09:59:07;;;;;;;0.50;0.40;;;;;;;;;;5012388;28;20052;-35
2021/11/08 10:01:38;;;;;;;0.82;0.50;;;;;;;;;;5010623;28;20065;-35
2021/11/08 10:04:05;;;;;;;0.55;0.30;;;;;;;;;;5009152;28;20046;-35
2021/11/08 10:06:32;;;;;;;1.38;0.30;;;;;;;;;;5012483;28;20133;-35
2021/11/08 10:08:58;;;;;;;1.35;0.40;;;;;;;;;;5010738;28;20508;-35
2021/11/08 10:11:24;;;;;;;0.50;0.30;;;;;;;;;;5013138;28;20697;-35
2021/11/08 10:13:51;;;;;;;2.13;0.68;;;;;;;;;;5015174;28;20451;-35
2021/11/08 10:16:24;;;;;;;3.05;0.50;;;;;;;;;;5016643;28;20044;-35
2021/11/08 10:18:53;;;;;;;1.15;0.50;;;;;;;;;;5018630;28;20048;-35
2021/11/08 10:21:21;;;;;;;2.13;0.50;;;;;;;;;;5007987;28;20056;-35
2021/11/08 10:23:50;;;;;;;0.88;0.25;;;;;;;;;;5002144;28;20044;-35
2021/11/08 10:26:19;;;;;;;0.90;0.40;;;;;;;;;;5010704;28;20754;-35
2021/11/08 10:29:07;;;;;;;0.77;0.40;;;;;;;;;;5006868;28;21852;-36
2021/11/08 10:31:36;;;;;;;2.58;0.63;;;;;;;;;;5007651;28;20050;-35
2021/11/08 10:34:06;;;;;;;0.82;0.30;;;;;;;;;;5011942;28;20505;-36
2021/11/08 10:36:32;;;;;;;0.55;0.30;;;;;;;;;;5011438;28;20037;-35
2021/11/08 10:39:00;;;;;;;2.17;0.40;;;;;;;;;;5007898;28;20076;-35
2021/11/08 10:41:30;;;;;;;1.83;0.38;;;;;;;;;;5011129;28;20041;-35
2021/11/08 10:44:01;;;;;;;1.58;0.30;;;;;;;;;;5013862;28;21152;-35
2021/11/08 10:46:31;;;;;;;2.28;0.40;;;;;;;;;;5027519;28;20078;-36
2021/11/08 10:49:02;;;;;;;;;;;;;;;;;;5013115;28;20536;-36
2021/11/08 10:51:30;;;;;;;2.05;0.50;;;;;;;;;;5011884;28;19921;-40
2021/11/08 10:54:04;;;;;;;1.35;0.50;;;;;;;;;;5012779;28;20389;-38
2021/11/08 10:56:37;;;;;;;0.52;0.30;;;;;;;;;;5009696;28;20041;-35
2021/11/08 10:59:09;;;;;;;0.95;0.30;;;;;;;;;;5028166;28;20049;-36
2021/11/08 11:01:41;;;;;;;0.82;0.38;;;;;;;;;;5012189;28;20630;-36
2021/11/08 11:04:07;;;;;;;1.27;0.30;;;;;;;;;;5016816;28;20068;-37
2021/11/08 11:06:38;;;;;;;0.75;0.30;;;;;;;;;;5007365;28;20038;-38
2021/11/08 11:09:16;;;;;;;4.65;0.40;;;;;;;;;;5012694;28;20045;-37
2021/11/08 11:11:43;;;;;;;1.20;0.35;;;;;;;;;;5015777;28;20034;-37
2021/11/08 11:14:09;;;;;;;1.10;0.30;;;;;;;;;;5012984;28;20331;-37
2021/11/08 11:16:37;;;;;;;0.80;0.22;;;;;;;;;;5017414;28;20535;-37
2021/11/08 11:19:10;;;;;;;0.98;0.40;;;;;;;;;;5019624;28;20048;-34
2021/11/08 11:21:38;;;;;;;0.55;0.45;;;;;;;;;;5014773;28;20056;-35
2021/11/08 11:24:06;;;;;;;1.73;0.20;;;;;;;;;;5016925;28;20046;-36
2021/11/08 11:26:49;;;;;;;0.82;0.40;;;;;;;;;;5018375;28;20049;-37
2021/11/08 11:29:26;;;;;;;3.13;0.30;;;;;;;;;;5001458;28;20441;-37
2021/11/08 11:31:51;;;;;;;0.60;0.15;;;;;;;;;;5027696;28;20040;-35
2021/11/08 11:34:17;;;;;;;0.52;0.20;;;;;;;;;;5014312;28;20425;-37
2021/11/08 11:36:43;;;;;;;0.77;0.30;;;;;;;;;;5009799;28;20760;-35
2021/11/08 11:39:13;;;;;;;1.85;0.20;;;;;;;;;;5009874;28;20051;-35
2021/11/08 11:41:42;;;;;;;0.52;0.20;;;;;;;;;;5011305;28;20136;-35
2021/11/08 11:44:15;;;;;;;1.03;0.23;;;;;;;;;;5018268;28;20056;-38
2021/11/08 11:46:52;;;;;;;1.05;0.30;;;;;;;;;;4993992;28;20255;-35
2021/11/08 11:49:18;;;;;;;1.50;0.30;;;;;;;;;;5018445;28;20063;-35
2021/11/08 11:51:47;;;;;;;0.90;0.20;;;;;;;;;;5016869;28;20060;-37
2021/11/08 11:54:14;;;;;;;0.82;0.20;;;;;;;;;;4996089;28;20049;-37
2021/11/08 11:56:44;;;;;;;1.05;0.32;;;;;;;;;;5014227;28;20048;-37
2021/11/08 11:59:11;;;;;;;2.45;0.30;;;;;;;;;;5009494;28;20061;-36
2021/11/08 12:01:38;;;;;;;1.23;0.50;;;;;;;;;;4995341;28;20564;-44
2021/11/08 12:04:04;;;;;;;3.50;0.40;;;;;;;;;;5014780;28;20358;-36
2021/11/08 12:06:33;;;;;;;0.28;0.20;;;;;;;;;;5011048;28;20404;-36
2021/11/08 12:09:00;;;;;;;0.77;0.30;;;;;;;;;;5014068;28;20095;-37
2021/11/08 12:11:37;;;;;;;1.05;0.40;;;;;;;;;;5010692;28;20029;-37
2021/11/08 12:14:12;;;;;;;1.27;0.20;;;;;;;;;;5004921;28;20069;-36
2021/11/08 12:16:49;;;;;;;0.88;0.35;;;;;;;;;;5021335;28;20049;-36
2021/11/08 12:19:22;;;;;;;0.30;0.30;;;;;;;;;;5010882;28;20065;-37
2021/11/08 12:21:49;;;;;;;0.25;0.20;;;;;;;;;;5021545;28;20087;-35
2021/11/08 12:24:20;;;;;;;1.08;0.20;;;;;;;;;;5020213;28;20037;-35
2021/11/08 12:26:48;;;;;;;2.53;0.40;;;;;;;;;;5016416;28;20406;-35
2021/11/08 12:29:20;;;;;;;1.05;0.20;;;;;;;;;;5013924;28;20938;-35
2021/11/08 12:31:48;;;;;;;0.45;0.20;;;;;;;;;;5018221;28;20037;-34
2021/11/08 12:34:20;;;;;;;0.73;0.20;;;;;;;;;;5015383;28;20509;-35
2021/11/08 12:37:01;;;;;;;0.75;0.32;;;;;;;;;;5012543;28;20606;-35
2021/11/08 12:39:28;;;;;;;0.40;0.40;;;;;;;;;;5011289;28;20034;-36
2021/11/08 12:42:01;;;;;;;2.80;0.30;;;;;;;;;;5020804;28;20069;-38
2021/11/08 12:46:39;;;;;;;1.75;0.30;;;;;;;;;;5043121;27;77487;-44
2021/11/08 12:49:31;;;;;;;1.42;0.40;;;;;;;;;;5005236;28;110994;-40
2021/11/08 12:51:59;;;;;;;0.93;0.28;;;;;;;;;;5004238;28;65199;-43
2021/11/08 12:54:27;;;;;;;1.27;0.40;;;;;;;;;;5003991;28;20048;-43
2021/11/08 12:56:53;;;;;;;1.70;0.50;;;;;;;;;;5008878;28;20092;-42
2021/11/08 12:59:26;;;;;;;3.03;0.52;;;;;;;;;;5009191;28;20033;-42
2021/11/08 13:02:09;;;;;;;1.40;0.40;;;;;;;;;;4994437;28;20424;-39
2021/11/08 13:06:22;;;;;;;1.17;0.38;;;;;;;;;;4959548;28;20418;-43
2021/11/08 13:07:13;;;;;;;1.38;0.63;;;;;;;;;;494273;27;98453;-34
2021/11/08 13:07:36;;;;;;;1.20;0.50;;;;;;;;;;516844;28;10758;-33
2021/11/08 13:07:54;;;;;;;1.23;0.60;;;;;;;;;;515775;28;9595;-34
2021/11/08 13:08:20;;;;;;;0.82;0.50;;;;;;;;;;515590;28;3746;-32
2021/11/08 13:08:37;;;;;;;0.60;0.43;;;;;;;;;;517544;28;2404;-34
2021/11/08 13:09:15;;;;;;;1.95;0.60;;;;;;;;;;517944;28;2338;-41
2021/11/08 13:09:40;;;;;;;0.70;0.50;;;;;;;;;;511551;28;9573;-40
2021/11/08 13:09:57;;;;;;;1.30;0.40;;;;;;;;;;450025;28;11029;-44
2021/11/08 13:10:43;;;;;;;1.30;0.40;;;;;;;;;;471824;28;58157;-41
2021/11/08 13:11:11;;;;;;;0.82;0.50;;;;;;;;;;514245;28;2412;-43
2021/11/08 13:11:36;;;;;;;1.65;0.40;;;;;;;;;;490628;28;63108;-41
2021/11/08 13:11:54;;;;;;;1.63;0.50;;;;;;;;;;517298;28;9030;-44
2021/11/08 13:12:12;;;;;;;1.75;0.52;;;;;;;;;;517655;28;2280;-43
2021/11/08 13:12:40;;;;;;;2.35;0.40;;;;;;;;;;439244;28;104563;-41
2021/11/08 13:12:57;;;;;;;1.40;0.40;;;;;;;;;;522032;28;2354;-43
2021/11/08 13:13:21;;;;;;;0.75;0.30;;;;;;;;;;506495;28;10133;-42
2021/11/08 13:13:54;;;;;;;0.73;0.30;;;;;;;;;;514429;28;9873;-43
2021/11/08 13:14:24;;;;;;;1.05;0.40;;;;;;;;;;507945;28;83200;-43
2021/11/08 13:14:40;;;;;;;1.20;0.38;;;;;;;;;;508508;28;82960;-38
2021/11/08 13:15:30;;;;;;;2.53;0.50;;;;;;;;;;502944;28;9525;-42
2021/11/08 13:15:45;;;;;;;0.85;0.40;;;;;;;;;;490778;28;8875;-43
2021/11/08 13:16:07;;;;;;;1.13;0.47;;;;;;;;;;497717;28;8997;-43
2021/11/08 13:17:21;;;;;;;2.30;0.50;;;;;;;;;;515053;28;9910;-42
2021/11/08 13:17:44;;;;;;;0.90;0.40;;;;;;;;;;497222;27;20410;-34
2021/11/08 13:18:34;;;;;;;0.35;0.20;;;;;;;;;;520734;27;20412;-35
2021/11/08 13:19:11;;;;;;;2.00;0.47;;;;;;;;;;488196;28;17954;-34
2021/11/08 13:19:53;;;;;;;1.42;0.60;;;;;;;;;;514100;28;4558;-34
2021/11/08 13:20:34;;;;;;;0.90;0.38;;;;;;;;;;486534;28;73705;-33
2021/11/08 13:21:10;;;;;;;1.13;0.40;;;;;;;;;;494349;28;20024;-34
2021/11/08 13:21:45;;;;;;;1.77;0.50;;;;;;;;;;494674;28;18811;-32
2021/11/08 13:22:26;;;;;;;1.10;0.40;;;;;;;;;;491562;28;73902;-34
2021/11/08 13:23:05;;;;;;;1.50;0.50;;;;;;;;;;482558;28;55775;-35
2021/11/08 13:23:40;;;;;;;0.60;0.40;;;;;;;;;;449226;28;9564;-35
2021/11/08 13:24:15;;;;;;;1.35;0.35;;;;;;;;;;499859;28;63025;-33
2021/11/08 13:25:06;;;;;;;1.35;0.40;;;;;;;;;;509879;28;35427;-32
2021/11/08 13:25:51;;;;;;;1.30;0.43;;;;;;;;;;511608;27;20606;-34
2021/11/08 13:26:08;;;;;;;1.80;0.70;;;;;;;;;;513379;28;55792;-34
2021/11/08 13:26:25;;;;;;;1.33;0.47;;;;;;;;;;512774;28;6616;-34
2021/11/08 13:26:47;;;;;;;1.20;0.32;;;;;;;;;;514970;28;6808;-34
2021/11/08 13:27:03;;;;;;;2.33;0.60;;;;;;;;;;513349;28;54710;-35
2021/11/08 13:27:19;;;;;;;2.55;0.65;;;;;;;;;;494597;28;10511;-32
2021/11/08 13:27:37;;;;;;;0.88;0.32;;;;;;;;;;484226;28;10454;-30
2021/11/08 13:28:05;;;;;;;0.88;0.40;;;;;;;;;;510682;28;7523;-34
2021/11/08 13:28:23;;;;;;;0.65;0.40;;;;;;;;;;502263;28;77212;-38
2021/11/08 13:28:41;;;;;;;1.00;0.50;;;;;;;;;;503572;28;7076;-39
2021/11/08 13:28:59;;;;;;;0.80;0.30;;;;;;;;;;506408;28;6591;-35
2021/11/08 13:29:18;;;;;;;0.50;0.22;;;;;;;;;;508888;28;8237;-35
2021/11/08 13:29:35;;;;;;;0.70;0.35;;;;;;;;;;509991;28;55210;-32
2021/11/08 13:29:56;;;;;;;0.60;0.40;;;;;;;;;;511939;28;6098;-36
2021/11/08 13:30:13;;;;;;;1.90;0.40;;;;;;;;;;507200;28;77613;-37
2021/11/08 13:30:36;;;;;;;1.40;0.30;;;;;;;;;;511874;28;6404;-37
2021/11/08 13:30:55;;;;;;;1.20;0.50;;;;;;;;;;506135;28;77838;-35
2021/11/08 13:31:12;;;;;;;1.00;0.50;;;;;;;;;;511013;28;30726;-39
2021/11/08 13:31:28;;;;;;;0.88;0.40;;;;;;;;;;509913;28;6589;-35
2021/11/08 13:31:45;;;;;;;0.80;0.38;;;;;;;;;;510290;28;7184;-34
2021/11/08 13:32:08;;;;;;;0.95;0.40;;;;;;;;;;511861;28;6695;-39
2021/11/08 13:32:28;;;;;;;1.83;0.80;;;;;;;;;;493654;28;100951;-35
2021/11/08 13:32:44;;;;;;;1.80;0.82;;;;;;;;;;511905;28;9846;-39
2021/11/08 13:33:02;;;;;;;1.75;0.75;;;;;;;;;;480610;28;60377;-40
2021/11/08 13:33:43;;;;;;;1.00;0.47;;;;;;;;;;491405;27;20388;-38
2021/11/08 13:34:18;;;;;;;0.80;0.30;;;;;;;;;;484203;28;12710;-36
2021/11/08 13:34:55;;;;;;;0.55;0.40;;;;;;;;;;508221;28;65040;-38
2021/11/08 13:35:38;;;;;;;0.82;0.50;;;;;;;;;;500929;27;20394;-36
2021/11/08 13:36:14;;;;;;;0.63;0.32;;;;;;;;;;512040;28;11247;-34
2021/11/08 13:36:48;;;;;;;0.95;0.40;;;;;;;;;;499432;28;10472;-33
2021/11/08 13:37:33;;;;;;;0.82;0.40;;;;;;;;;;513686;28;6350;-35
2021/11/08 13:38:33;;;;;;;0.77;0.40;;;;;;;;;;511351;28;6587;-42
2021/11/08 13:39:07;;;;;;;0.88;0.50;;;;;;;;;;505621;28;6442;-33
2021/11/08 13:39:43;;;;;;;0.80;0.40;;;;;;;;;;510955;28;6079;-34
2021/11/08 13:40:22;;;;;;;0.88;0.40;;;;;;;;;;512706;28;5897;-35
2021/11/08 13:41:15;;;;;;;1.83;0.40;;;;;;;;;;510960;28;6947;-35
2021/11/08 13:41:50;;;;;;;1.40;0.50;;;;;;;;;;506847;28;6112;-38
2021/11/08 13:42:24;;;;;;;1.15;0.45;;;;;;;;;;512694;28;7103;-37
2021/11/08 13:43:21;;;;;;;0.52;0.30;;;;;;;;;;512847;28;6249;-34
2021/11/08 13:44:01;;;;;;;1.15;0.40;;;;;;;;;;487041;28;10525;-39
2021/11/08 13:44:35;;;;;;;1.00;0.40;;;;;;;;;;502161;28;19757;-36
2021/11/08 13:45:09;;;;;;;0.75;0.30;;;;;;;;;;521197;28;5193;-35
2021/11/08 13:45:51;;;;;;;1.33;0.30;;;;;;;;;;518834;28;6037;-39
2021/11/08 13:46:36;;;;;;;0.93;0.30;;;;;;;;;;516847;28;6058;-32
2021/11/08 13:47:10;;;;;;;1.75;0.60;;;;;;;;;;487857;28;65042;-32
2021/11/08 13:47:48;;;;;;;0.52;0.40;;;;;;;;;;517451;28;5900;-37
2021/11/08 13:48:40;;;;;;;0.55;0.30;;;;;;;;;;516016;28;5757;-33
2021/11/08 13:49:24;;;;;;;1.15;0.40;;;;;;;;;;516315;27;20406;-33
2021/11/08 13:50:08;;;;;;;0.68;0.40;;;;;;;;;;521319;28;2287;-37
2021/11/08 13:50:42;;;;;;;1.00;0.40;;;;;;;;;;494845;28;10223;-33
2021/11/08 13:51:48;;;;;;;1.20;0.40;;;;;;;;;;520505;28;3204;-40
2021/11/08 13:52:22;;;;;;;2.47;0.40;;;;;;;;;;487090;28;58590;-38
2021/11/08 13:53:05;;;;;;;1.60;0.43;;;;;;;;;;520644;28;20388;-32